createdAt,value
2023-04-17T00:00:43.584Z,100277.31
2023-04-17T00:03:47.549Z,100275.44
2023-04-17T00:06:53.888Z,100278.94
2023-04-17T00:09:57.196Z,100278.31
2023-04-17T00:12:59.893Z,100272.16
2023-04-17T00:16:02.855Z,100280.34
2023-04-17T00:19:06.330Z,100271.59
2023-04-17T00:22:09.108Z,100275.13
2023-04-17T00:25:14.767Z,100277.16
2023-04-17T00:28:17.384Z,100261.34
2023-04-17T00:31:20.255Z,100269.91
2023-04-17T00:34:22.874Z,100265.41
2023-04-17T00:37:25.540Z,100259.97
2023-04-17T00:40:28.243Z,100269.41
2023-04-17T00:43:30.975Z,100270.66
2023-04-17T00:46:33.755Z,100263.16
2023-04-17T00:49:36.864Z,100274.69
2023-04-17T00:52:39.755Z,100269.97
2023-04-17T00:55:44.774Z,100265.94
2023-04-17T00:58:48.819Z,100267.50
2023-04-17T01:01:51.554Z,100261.69
2023-04-17T01:04:54.191Z,100265.75
2023-04-17T01:07:59.646Z,100256.63
2023-04-17T01:11:02.463Z,100263.66
2023-04-17T01:14:05.299Z,100264.78
2023-04-17T01:17:08.053Z,100270.41
2023-04-17T01:20:12.021Z,100268.16
2023-04-17T01:23:15.789Z,100270.16
2023-04-17T01:26:28.295Z,100268.72
2023-04-17T01:29:31.317Z,100262.63
2023-04-17T01:32:34.282Z,100269.41
2023-04-17T01:35:36.912Z,100262.72
2023-04-17T01:38:40.568Z,100260.44
2023-04-17T01:41:43.494Z,100253.41
2023-04-17T01:44:46.379Z,100256.78
2023-04-17T01:47:49.038Z,100258.47
2023-04-17T01:50:52.434Z,100258.22
2023-04-17T01:53:55.913Z,100263.84
2023-04-17T01:56:58.462Z,100260.22
2023-04-17T02:00:01.686Z,100261.81
2023-04-17T02:03:15.843Z,100255.25
2023-04-17T02:06:19.472Z,100264.72
2023-04-17T02:09:22.580Z,100261.53
2023-04-17T02:12:25.371Z,100262.22
2023-04-17T02:15:28.865Z,100261.38
2023-04-17T02:18:32.444Z,100268.13
2023-04-17T02:21:37.051Z,100265.91
2023-04-17T02:24:41.121Z,100265.56
2023-04-17T02:27:44.424Z,100263.81
2023-04-17T02:30:46.940Z,100263.50
2023-04-17T02:33:50.889Z,100259.81
2023-04-17T02:36:53.352Z,100262.34
2023-04-17T02:39:59.434Z,100258.47
2023-04-17T02:43:02.871Z,100260.88
2023-04-17T02:46:06.471Z,100266.69
2023-04-17T02:49:10.607Z,100256.72
2023-04-17T02:52:15.576Z,100254.00
2023-04-17T02:55:19.164Z,100257.34
2023-04-17T02:58:21.882Z,100259.28
2023-04-17T03:01:26.415Z,100261.69
2023-04-17T03:04:29.230Z,100268.47
2023-04-17T03:07:31.777Z,100262.94
2023-04-17T03:10:35.442Z,100275.03
2023-04-17T03:13:38.444Z,100265.13
2023-04-17T03:16:40.978Z,100266.25
2023-04-17T03:19:44.462Z,100274.78
2023-04-17T03:22:48.014Z,100267.69
2023-04-17T03:25:51.109Z,100266.25
2023-04-17T03:28:54.489Z,100262.72
2023-04-17T03:31:58.552Z,100264.53
2023-04-17T03:35:02.043Z,100265.50
2023-04-17T03:38:04.743Z,100269.97
2023-04-17T03:41:07.295Z,100272.19
2023-04-17T03:44:10.624Z,100272.69
2023-04-17T03:47:13.158Z,100270.78
2023-04-17T03:50:17.613Z,100260.75
2023-04-17T03:53:31.039Z,100271.13
2023-04-17T03:56:37.620Z,100275.00
2023-04-17T03:59:41.152Z,100272.59
2023-04-17T04:02:44.038Z,100279.34
2023-04-17T04:05:47.899Z,100281.25
2023-04-17T04:08:50.734Z,100280.75
2023-04-17T04:11:54.060Z,100283.03
2023-04-17T04:14:57.998Z,100279.56
2023-04-17T04:18:03.185Z,100288.22
2023-04-17T04:21:06.986Z,100281.03
2023-04-17T04:24:14.474Z,100281.25
2023-04-17T04:27:22.734Z,100284.19
2023-04-17T04:30:30.564Z,100291.91
2023-04-17T04:33:45.457Z,100287.94
2023-04-17T04:36:51.979Z,100297.88
2023-04-17T04:40:11.083Z,100302.75
2023-04-17T04:43:17.708Z,100301.78
2023-04-17T04:46:22.889Z,100309.47
2023-04-17T04:49:26.569Z,100315.72
2023-04-17T04:52:29.167Z,100313.16
2023-04-17T04:55:36.160Z,100318.94
2023-04-17T04:58:40.030Z,100322.53
2023-04-17T05:01:44.957Z,100324.63
2023-04-17T05:04:49.629Z,100326.06
2023-04-17T05:07:55.865Z,100330.38
2023-04-17T05:11:02.753Z,100323.50
2023-04-17T05:14:05.609Z,100329.28
2023-04-17T05:17:12.049Z,100332.38
2023-04-17T05:20:19.026Z,100332.22
2023-04-17T05:23:30.704Z,100336.06
2023-04-17T05:26:33.719Z,100332.38
2023-04-17T05:29:37.644Z,100338.78
2023-04-17T05:32:40.481Z,100341.66
2023-04-17T05:36:02.943Z,100343.09
2023-04-17T05:39:10.610Z,100342.31
2023-04-17T05:42:13.617Z,100331.19
2023-04-17T05:45:21.096Z,100338.63
2023-04-17T05:48:25.359Z,100340.88
2023-04-17T05:51:28.920Z,100341.72
2023-04-17T05:54:31.636Z,100347.00
2023-04-17T05:57:43.148Z,100349.44
2023-04-17T06:00:46.917Z,100357.00
2023-04-17T06:03:58.823Z,100355.88
2023-04-17T06:07:23.802Z,100352.66
2023-04-17T06:11:37.445Z,100355.38
2023-04-17T06:14:40.611Z,100360.81
2023-04-17T06:17:45.315Z,100360.34
2023-04-17T06:20:48.105Z,100361.63
2023-04-17T06:23:52.124Z,100363.88
2023-04-17T06:26:55.357Z,100368.38
2023-04-17T06:30:00.898Z,100372.84
2023-04-17T06:33:06.810Z,100375.72
2023-04-17T06:36:10.596Z,100367.34
2023-04-17T06:39:22.984Z,100370.41
2023-04-17T06:42:26.472Z,100375.28
2023-04-17T06:45:37.093Z,100375.72
2023-04-17T06:48:42.272Z,100378.59
2023-04-17T06:51:47.671Z,100376.13
2023-04-17T06:55:04.308Z,100383.25
2023-04-17T06:58:14.892Z,100383.44
2023-04-17T07:01:22.258Z,100385.09
2023-04-17T07:04:25.454Z,100378.63
2023-04-17T07:07:30.768Z,100378.06
2023-04-17T07:10:35.412Z,100380.38
2023-04-17T07:13:38.676Z,100384.28
2023-04-17T07:16:41.823Z,100380.38
2023-04-17T07:19:45.075Z,100387.91
2023-04-17T07:22:49.990Z,100385.78
2023-04-17T07:25:52.990Z,100386.75
2023-04-17T07:28:56.091Z,100392.38
2023-04-17T07:32:04.621Z,100383.72
2023-04-17T07:35:16.140Z,100391.38
2023-04-17T07:38:23.824Z,100387.84
2023-04-17T07:41:27.457Z,100391.47
2023-04-17T07:44:31.350Z,100390.34
2023-04-17T07:48:04.868Z,100394.16
2023-04-17T07:51:23.788Z,100397.44
2023-04-17T07:54:27.322Z,100402.34
2023-04-17T07:57:31.082Z,100402.47
2023-04-17T08:00:35.095Z,100393.34
2023-04-17T08:03:41.645Z,100393.00
2023-04-17T08:06:45.601Z,100389.00
2023-04-17T08:09:51.232Z,100397.53
2023-04-17T08:12:55.035Z,100387.38
2023-04-17T08:15:59.691Z,100382.22
2023-04-17T08:19:03.396Z,100395.53
2023-04-17T08:22:07.441Z,100392.09
2023-04-17T08:25:11.526Z,100385.72
2023-04-17T08:28:14.448Z,100389.66
2023-04-17T08:31:17.164Z,100387.66
2023-04-17T08:34:19.892Z,100378.50
2023-04-17T08:37:22.623Z,100391.22
2023-04-17T08:40:29.517Z,100380.34
2023-04-17T08:43:47.553Z,100387.69
2023-04-17T08:47:06.918Z,100384.38
2023-04-17T08:50:15.907Z,100381.22
2023-04-17T08:53:20.744Z,100388.31
2023-04-17T08:56:28.791Z,100383.34
2023-04-17T08:59:33.833Z,100375.09
2023-04-17T09:02:54.925Z,100377.16
2023-04-17T09:05:58.716Z,100378.28
2023-04-17T09:09:02.690Z,100392.84
2023-04-17T09:12:26.120Z,100381.66
2023-04-17T09:15:43.423Z,100389.38
2023-04-17T09:19:07.781Z,100387.03
2023-04-17T09:22:22.466Z,100385.44
2023-04-17T09:25:26.722Z,100386.03
2023-04-17T09:28:40.716Z,100383.03
2023-04-17T09:36:33.304Z,100379.25
2023-04-17T09:40:07.773Z,100383.22
2023-04-17T09:43:28.695Z,100371.91
2023-04-17T09:47:14.218Z,100369.75
2023-04-17T09:50:25.028Z,100376.22
2023-04-17T09:53:28.819Z,100371.69
2023-04-17T09:56:42.602Z,100362.78
2023-04-17T09:59:50.545Z,100376.03
2023-04-17T10:02:56.576Z,100368.78
2023-04-17T10:06:04.238Z,100361.72
2023-04-17T10:09:08.300Z,100357.78
2023-04-17T10:12:17.081Z,100358.97
2023-04-17T10:15:24.152Z,100354.25
2023-04-17T10:18:32.568Z,100358.59
2023-04-17T10:21:40.343Z,100353.25
2023-04-17T10:24:47.644Z,100346.06
2023-04-17T10:27:54.505Z,100346.88
2023-04-17T10:31:00.139Z,100340.31
2023-04-17T10:34:02.840Z,100340.09
2023-04-17T10:37:06.821Z,100345.59
2023-04-17T10:40:12.156Z,100346.16
2023-04-17T10:43:17.993Z,100343.16
2023-04-17T10:46:26.736Z,100348.09
2023-04-17T10:49:48.406Z,100340.38
2023-04-17T10:52:53.115Z,100352.72
2023-04-17T10:55:57.648Z,100342.31
2023-04-17T10:59:04.447Z,100340.88
2023-04-17T11:02:08.381Z,100336.84
2023-04-17T11:05:12.117Z,100341.59
2023-04-17T11:08:15.705Z,100341.81
2023-04-17T11:11:26.934Z,100338.06
2023-04-17T11:14:42.863Z,100342.84
2023-04-17T11:17:48.639Z,100330.06
2023-04-17T11:20:52.676Z,100343.25
2023-04-17T11:23:55.258Z,100340.38
2023-04-17T11:27:00.927Z,100335.41
2023-04-17T11:30:04.043Z,100324.81
2023-04-17T11:33:09.039Z,100330.03
2023-04-17T11:36:11.891Z,100328.28
2023-04-17T11:39:16.191Z,100330.44
2023-04-17T11:42:28.436Z,100322.94
2023-04-17T11:45:33.084Z,100318.06
2023-04-17T11:48:35.787Z,100317.91
2023-04-17T11:51:39.116Z,100330.16
2023-04-17T11:54:42.759Z,100330.69
2023-04-17T11:57:45.664Z,100329.34
2023-04-17T12:01:05.070Z,100327.16
2023-04-17T12:04:26.452Z,100333.34
2023-04-17T12:07:44.653Z,100325.91
2023-04-17T12:10:52.126Z,100333.03
2023-04-17T12:13:56.425Z,100321.72
2023-04-17T12:16:59.955Z,100319.72
2023-04-17T12:20:04.183Z,100322.63
2023-04-17T12:23:07.112Z,100319.81
2023-04-17T12:26:09.871Z,100324.41
2023-04-17T12:29:12.586Z,100316.38
2023-04-17T12:32:16.697Z,100322.09
2023-04-17T12:35:20.815Z,100323.22
2023-04-17T12:38:23.729Z,100315.00
2023-04-17T12:41:26.921Z,100312.28
2023-04-17T12:44:34.410Z,100307.25
2023-04-17T12:47:38.206Z,100302.78
2023-04-17T12:50:44.393Z,100300.69
2023-04-17T12:53:47.884Z,100292.34
2023-04-17T12:57:02.328Z,100293.31
2023-04-17T13:00:20.408Z,100282.94
2023-04-17T13:03:28.456Z,100273.22
2023-04-17T13:06:32.510Z,100279.16
2023-04-17T13:09:35.882Z,100272.72
2023-04-17T13:12:42.204Z,100269.66
2023-04-17T13:15:48.168Z,100265.06
2023-04-17T13:18:51.036Z,100262.69
2023-04-17T13:21:53.643Z,100268.31
2023-04-17T13:24:57.196Z,100274.25
2023-04-17T13:28:00.212Z,100276.28
2023-04-17T13:31:06.026Z,100278.50
2023-04-17T13:34:11.458Z,100300.84
2023-04-17T13:37:15.360Z,100304.28
2023-04-17T13:40:21.109Z,100303.66
2023-04-17T13:43:24.265Z,100294.19
2023-04-17T13:46:27.037Z,100288.63
2023-04-17T13:49:29.961Z,100275.09
2023-04-17T13:52:33.187Z,100291.88
2023-04-17T13:55:36.064Z,100289.94
2023-04-17T13:58:45.495Z,100286.25
2023-04-17T14:01:49.287Z,100292.09
2023-04-17T14:04:52.349Z,100292.41
2023-04-17T14:07:55.873Z,100289.78
2023-04-17T14:10:58.496Z,100279.56
2023-04-17T14:14:01.538Z,100287.72
2023-04-17T14:17:04.268Z,100280.97
2023-04-17T14:20:08.671Z,100284.00
2023-04-17T14:23:11.424Z,100285.06
2023-04-17T14:26:14.137Z,100276.00
2023-04-17T14:29:17.062Z,100270.50
2023-04-17T14:32:30.327Z,100273.63
2023-04-17T14:35:34.085Z,100262.78
2023-04-17T14:38:46.783Z,100265.22
2023-04-17T14:41:52.458Z,100263.84
2023-04-17T14:44:55.262Z,100265.16
2023-04-17T14:47:58.149Z,100257.53
2023-04-17T14:51:01.687Z,100262.78
2023-04-17T14:54:06.530Z,100260.78
2023-04-17T14:57:10.070Z,100269.41
2023-04-17T15:00:13.353Z,100263.63
2023-04-17T15:03:16.130Z,100260.31
2023-04-17T15:06:20.059Z,100262.53
2023-04-17T15:09:22.737Z,100260.41
2023-04-17T15:12:25.363Z,100260.13
2023-04-17T15:15:28.560Z,100261.81
2023-04-17T15:18:31.377Z,100262.72
2023-04-17T15:21:34.233Z,100266.25
2023-04-17T15:24:36.898Z,100270.97
2023-04-17T15:27:39.621Z,100266.97
2023-04-17T15:30:43.152Z,100271.41
2023-04-17T15:33:47.437Z,100261.91
2023-04-17T15:36:50.942Z,100260.03
2023-04-17T15:39:53.608Z,100258.53
2023-04-17T15:42:56.424Z,100262.88
2023-04-17T15:46:00.141Z,100259.28
2023-04-17T15:49:08.762Z,100261.53
2023-04-17T15:52:12.876Z,100260.97
2023-04-17T15:55:16.106Z,100262.22
2023-04-17T15:58:18.808Z,100266.28
2023-04-17T16:01:21.492Z,100269.41
2023-04-17T16:04:24.693Z,100264.28
2023-04-17T16:07:27.501Z,100262.22
2023-04-17T16:10:30.412Z,100259.47
2023-04-17T16:13:32.959Z,100264.34
2023-04-17T16:16:35.707Z,100258.59
2023-04-17T16:19:38.982Z,100265.50
2023-04-17T16:22:41.670Z,100271.97
2023-04-17T16:25:44.234Z,100275.56
2023-04-17T16:28:46.881Z,100265.22
2023-04-17T16:31:49.846Z,100272.41
2023-04-17T16:34:52.773Z,100269.22
2023-04-17T16:37:55.446Z,100274.00
2023-04-17T16:40:59.068Z,100270.25
2023-04-17T16:44:02.436Z,100270.25
2023-04-17T16:47:13.248Z,100272.81
2023-04-17T16:50:16.677Z,100277.56
2023-04-17T16:53:21.321Z,100275.22
2023-04-17T16:56:24.482Z,100277.25
2023-04-17T16:59:27.119Z,100266.09
2023-04-17T17:02:29.802Z,100277.94
2023-04-17T17:05:33.066Z,100274.31
2023-04-17T17:08:36.530Z,100276.13
2023-04-17T17:11:41.963Z,100281.94
2023-04-17T17:14:44.972Z,100281.81
2023-04-17T17:17:48.591Z,100279.66
2023-04-17T17:20:54.137Z,100281.38
2023-04-17T17:23:57.572Z,100280.00
2023-04-17T17:27:00.676Z,100284.00
2023-04-17T17:30:04.230Z,100281.09
2023-04-17T17:33:06.927Z,100280.88
2023-04-17T17:36:11.981Z,100278.69
2023-04-17T17:39:14.771Z,100276.66
2023-04-17T17:42:17.442Z,100283.03
2023-04-17T17:45:20.652Z,100283.22
2023-04-17T17:48:24.010Z,100288.47
2023-04-17T17:51:27.543Z,100289.63
2023-04-17T17:54:34.542Z,100285.72
2023-04-17T17:57:48.275Z,100284.34
2023-04-17T18:00:51.738Z,100299.88
2023-04-17T18:03:55.260Z,100300.66
2023-04-17T18:06:58.636Z,100300.91
2023-04-17T18:10:02.141Z,100303.53
2023-04-17T18:13:05.774Z,100308.63
2023-04-17T18:16:08.506Z,100298.25
2023-04-17T18:19:12.660Z,100308.31
2023-04-17T18:22:15.244Z,100315.88
2023-04-17T18:25:17.995Z,100320.38
2023-04-17T18:28:20.814Z,100322.63
2023-04-17T18:31:25.243Z,100322.00
2023-04-17T18:34:27.865Z,100326.66
2023-04-17T18:37:30.540Z,100329.25
2023-04-17T18:40:33.296Z,100330.59
2023-04-17T18:43:35.918Z,100327.09
2023-04-17T18:46:38.523Z,100331.31
2023-04-17T18:49:41.662Z,100328.44
2023-04-17T18:52:48.791Z,100338.94
2023-04-17T18:55:53.636Z,100333.66
2023-04-17T18:58:56.292Z,100335.25
2023-04-17T19:01:59.059Z,100339.63
2023-04-17T19:05:01.846Z,100343.56
2023-04-17T19:08:05.277Z,100346.50
2023-04-17T19:11:08.052Z,100344.13
2023-04-17T19:14:10.895Z,100349.00
2023-04-17T19:17:13.689Z,100353.00
2023-04-17T19:20:16.862Z,100349.78
2023-04-17T19:23:20.213Z,100348.78
2023-04-17T19:26:23.743Z,100353.78
2023-04-17T19:29:27.150Z,100354.59
2023-04-17T19:32:31.656Z,100354.78
2023-04-17T19:35:35.234Z,100357.31
2023-04-17T19:38:38.606Z,100353.13
2023-04-17T19:41:42.787Z,100354.59
2023-04-17T19:44:46.294Z,100347.25
2023-04-17T19:47:54.976Z,100348.84
2023-04-17T19:51:00.063Z,100352.56
2023-04-17T19:54:02.708Z,100345.38
2023-04-17T19:57:05.323Z,100337.97
2023-04-17T20:00:08.757Z,100346.84
2023-04-17T20:03:15.243Z,100348.09
2023-04-17T20:06:19.627Z,100346.16
2023-04-17T20:09:22.321Z,100336.84
2023-04-17T20:12:25.547Z,100343.94
2023-04-17T20:15:28.188Z,100338.28
2023-04-17T20:18:31.472Z,100337.16
2023-04-17T20:21:34.337Z,100345.22
2023-04-17T20:24:37.740Z,100342.97
2023-04-17T20:27:40.640Z,100354.34
2023-04-17T20:30:43.213Z,100347.97
2023-04-17T20:33:46.875Z,100345.69
2023-04-17T20:36:49.453Z,100354.03
2023-04-17T20:39:52.863Z,100351.94
2023-04-17T20:42:55.520Z,100358.09
2023-04-17T20:45:59.277Z,100362.09
2023-04-17T20:49:01.871Z,100366.75
2023-04-17T20:52:04.717Z,100366.31
2023-04-17T20:55:08.800Z,100369.66
2023-04-17T20:58:11.463Z,100379.38
2023-04-17T21:01:15.027Z,100372.44
2023-04-17T21:04:18.386Z,100383.66
2023-04-17T21:07:21.059Z,100379.47
2023-04-17T21:10:24.072Z,100375.47
2023-04-17T21:13:26.899Z,100380.31
2023-04-17T21:16:29.740Z,100383.16
2023-04-17T21:19:36.013Z,100371.78
2023-04-17T21:22:38.962Z,100373.75
2023-04-17T21:25:42.353Z,100377.00
2023-04-17T21:28:45.480Z,100378.09
2023-04-17T21:31:48.264Z,100378.78
2023-04-17T21:34:50.770Z,100378.16
2023-04-17T21:37:53.485Z,100373.00
2023-04-17T21:40:58.278Z,100373.19
2023-04-17T21:44:02.641Z,100372.69
2023-04-17T21:47:05.337Z,100369.03
2023-04-17T21:50:08.782Z,100376.88
2023-04-17T21:53:12.345Z,100368.81
2023-04-17T21:56:15.031Z,100373.16
2023-04-17T21:59:18.226Z,100370.59
2023-04-17T22:02:21.047Z,100373.19
2023-04-17T22:05:23.752Z,100366.13
2023-04-17T22:08:26.354Z,100367.72
2023-04-17T22:11:29.042Z,100370.28
2023-04-17T22:14:31.535Z,100374.50
2023-04-17T22:17:34.221Z,100372.88
2023-04-17T22:20:37.065Z,100378.03
2023-04-17T22:23:39.788Z,100369.97
2023-04-17T22:26:42.462Z,100372.72
2023-04-17T22:29:45.274Z,100376.72
2023-04-17T22:32:47.851Z,100375.59
2023-04-17T22:35:51.174Z,100382.66
2023-04-17T22:38:53.823Z,100379.00
2023-04-17T22:41:57.934Z,100385.72
2023-04-17T22:45:01.419Z,100394.41
2023-04-17T22:48:04.379Z,100400.19
2023-04-17T22:51:09.729Z,100388.75
2023-04-17T22:54:22.281Z,100398.22
2023-04-17T22:57:25.896Z,100388.44
2023-04-17T23:00:30.011Z,100399.03
2023-04-17T23:03:32.689Z,100396.31
2023-04-17T23:06:35.302Z,100399.34
2023-04-17T23:09:37.981Z,100408.03
2023-04-17T23:12:40.940Z,100407.88
2023-04-17T23:15:43.643Z,100402.72
2023-04-17T23:18:46.589Z,100400.81
2023-04-17T23:21:49.319Z,100402.88
2023-04-17T23:24:53.421Z,100398.06
2023-04-17T23:27:56.232Z,100398.38
2023-04-17T23:31:04.532Z,100397.75
2023-04-17T23:34:07.995Z,100400.25
2023-04-17T23:37:11.460Z,100396.88
2023-04-17T23:40:14.224Z,100393.53
2023-04-17T23:43:16.976Z,100390.91
2023-04-17T23:46:20.052Z,100388.88
2023-04-17T23:49:22.827Z,100395.06
2023-04-17T23:52:26.337Z,100389.78
2023-04-17T23:55:29.293Z,100384.31
2023-04-17T23:58:32.950Z,100382.97
